Terminal Aerodrome Forecast
Issued by NWS

Home | Current Version | Previous Version | Text Only | Print | Product List | Glossary On
Versions: 1 2 3 4 5 6 7 8 9 10 11 12 13 14 15 16 17 18 19
000
FTUS43 KGRB 281552 AAA
TAFCWA
TAF AMD
KCWA 281552Z 2816/2912 VRB03KT P6SM BKN015
      TEMPO 2817/2819 SCT015
     FM281900 17003KT P6SM FEW120
     FM290600 14003KT 6SM BR SCT250
     FM290800 14003KT 3SM BR SCT200=

USA.gov is the U.S. government's official web portal to all federal, state and local government web resources and services.